Time;durP1;ratioP1;P1;durP2;ratioP2;P2;SDS_P1;SDS_P2;PMS_P1;PMS_P2;Temp;Humidity;BMP_temperature;BMP_pressure;BME280_temperature;BME280_humidity;BME280_pressure;Samples;Min_cycle;Max_cycle;Signal;HPM_P1;HPM_P2
2023/08/07 00:00:18;;;;;;;8.57;2.90;;;15.30;99.90;;;;;;5005155;28;20225;-28
2023/08/07 00:02:45;;;;;;;6.17;2.63;;;15.30;99.90;;;;;;4989373;28;20202;-28
2023/08/07 00:05:13;;;;;;;6.40;2.77;;;15.30;99.90;;;;;;5005275;28;20766;-28
2023/08/07 00:07:47;;;;;;;5.03;2.63;;;15.30;99.90;;;;;;5005228;28;20271;-28
2023/08/07 00:10:15;;;;;;;9.67;2.40;;;15.30;99.90;;;;;;5005224;28;20268;-28
2023/08/07 00:12:43;;;;;;;4.17;2.17;;;15.30;99.90;;;;;;5004797;28;20214;-29
2023/08/07 00:15:11;;;;;;;5.60;2.33;;;15.30;99.90;;;;;;5006307;28;20204;-28
2023/08/07 00:17:38;;;;;;;6.30;2.53;;;15.30;99.90;;;;;;5005063;28;20268;-28
2023/08/07 00:20:08;;;;;;;7.83;2.60;;;15.30;99.90;;;;;;5004950;28;20252;-28
2023/08/07 00:22:35;;;;;;;6.70;2.70;;;15.20;99.90;;;;;;5005129;28;20593;-28
2023/08/07 00:25:03;;;;;;;8.07;2.47;;;15.20;99.90;;;;;;5004830;28;20247;-28
2023/08/07 00:27:35;;;;;;;7.47;2.47;;;15.20;99.90;;;;;;5005798;28;20225;-28
2023/08/07 00:30:02;;;;;;;7.53;2.80;;;15.20;99.90;;;;;;5004804;28;20233;-28
2023/08/07 00:32:29;;;;;;;7.43;2.57;;;15.20;99.90;;;;;;5004667;28;20205;-28
2023/08/07 00:34:59;;;;;;;7.70;2.33;;;15.20;99.90;;;;;;5006045;28;20214;-28
2023/08/07 00:37:30;;;;;;;5.50;2.47;;;15.20;99.90;;;;;;5006230;28;20213;-28
2023/08/07 00:39:57;;;;;;;9.33;2.90;;;15.20;99.90;;;;;;5006107;28;20216;-28
2023/08/07 00:42:24;;;;;;;6.03;2.57;;;15.20;99.90;;;;;;5005978;28;20243;-28
2023/08/07 00:44:54;;;;;;;7.23;2.37;;;15.10;99.90;;;;;;5004562;28;20437;-28
2023/08/07 00:47:24;;;;;;;4.80;2.50;;;15.10;99.90;;;;;;5004481;28;20198;-29
2023/08/07 00:49:52;;;;;;;4.47;2.50;;;15.10;99.90;;;;;;5004514;28;20752;-28
2023/08/07 00:52:23;;;;;;;6.07;2.77;;;15.10;99.90;;;;;;4988942;28;20292;-28
2023/08/07 00:54:50;;;;;;;4.60;2.23;;;15.10;99.90;;;;;;5004592;28;20206;-28
2023/08/07 00:57:24;;;;;;;4.67;2.40;;;15.10;99.90;;;;;;5004422;28;20206;-28
2023/08/07 00:59:52;;;;;;;5.87;2.37;;;15.10;99.90;;;;;;5006656;28;20205;-28
2023/08/07 01:02:24;;;;;;;6.63;2.33;;;15.10;99.90;;;;;;5007905;28;20267;-28
2023/08/07 01:04:52;;;;;;;7.43;2.40;;;15.10;99.90;;;;;;5015395;28;20212;-28
2023/08/07 01:07:19;;;;;;;5.50;2.00;;;15.10;99.90;;;;;;5015436;28;20316;-28
2023/08/07 01:09:47;;;;;;;5.47;2.27;;;15.10;99.90;;;;;;5019961;28;20213;-28
2023/08/07 01:12:27;;;;;;;5.73;1.97;;;15.10;99.90;;;;;;5025286;28;20745;-28
2023/08/07 01:15:05;;;;;;;5.93;2.40;;;15.10;99.90;;;;;;5021567;28;20240;-28
2023/08/07 01:17:34;;;;;;;5.97;2.83;;;15.00;99.90;;;;;;5015707;28;20633;-28
2023/08/07 01:20:02;;;;;;;9.90;2.73;;;15.10;99.90;;;;;;5024976;28;20239;-28
2023/08/07 01:22:29;;;;;;;7.50;2.57;;;15.10;99.90;;;;;;5025118;28;20223;-28
2023/08/07 01:25:01;;;;;;;3.83;2.10;;;15.00;99.90;;;;;;5025078;28;20201;-28
2023/08/07 01:27:57;;;;;;;5.03;2.70;;;15.00;99.90;;;;;;5025055;28;20690;-28
2023/08/07 01:30:42;;;;;;;4.70;2.17;;;15.00;99.90;;;;;;5024951;28;20266;-28
2023/08/07 01:33:29;;;;;;;6.60;2.70;;;15.00;99.90;;;;;;5022574;28;20208;-28
2023/08/07 01:36:06;;;;;;;5.03;2.57;;;15.00;99.90;;;;;;5025360;28;20266;-28
2023/08/07 01:38:35;;;;;;;4.00;2.23;;;15.00;99.90;;;;;;5025382;28;20879;-28
2023/08/07 01:41:09;;;;;;;7.13;2.27;;;14.90;99.90;;;;;;5025758;28;20699;-28
2023/08/07 01:43:37;;;;;;;5.60;2.43;;;14.90;99.90;;;;;;5023889;28;20322;-28
2023/08/07 01:46:06;;;;;;;3.93;2.00;;;14.90;99.90;;;;;;5023955;28;20210;-28
2023/08/07 01:48:34;;;;;;;7.10;2.33;;;14.80;99.90;;;;;;5025256;28;20671;-28
2023/08/07 01:51:04;;;;;;;5.60;2.20;;;14.80;99.90;;;;;;5023705;28;20205;-28
2023/08/07 01:53:31;;;;;;;8.00;2.50;;;14.80;99.90;;;;;;5025025;28;20201;-28
2023/08/07 01:56:05;;;;;;;4.00;2.30;;;14.80;99.90;;;;;;5027627;28;20705;-28
2023/08/07 01:58:37;;;;;;;4.47;2.40;;;14.80;99.90;;;;;;5011396;28;20200;-28
2023/08/07 02:01:04;;;;;;;4.97;2.20;;;14.70;99.90;;;;;;5028715;28;20686;-28
2023/08/07 02:03:31;;;;;;;5.40;2.40;;;14.80;99.90;;;;;;5028522;28;20208;-28
2023/08/07 02:06:02;;;;;;;3.80;1.80;;;14.70;99.90;;;;;;5028265;28;20683;-28
2023/08/07 02:08:32;;;;;;;5.63;2.10;;;14.70;99.90;;;;;;5026938;28;20223;-28
2023/08/07 02:11:02;;;;;;;6.90;2.23;;;14.70;99.90;;;;;;5027224;28;20208;-28
2023/08/07 02:13:29;;;;;;;6.00;2.10;;;14.70;99.90;;;;;;5028537;28;20236;-28
2023/08/07 02:15:57;;;;;;;8.63;2.30;;;14.70;99.90;;;;;;5010881;28;20215;-28
2023/08/07 02:18:29;;;;;;;5.23;2.20;;;14.70;99.90;;;;;;5010700;28;20599;-28
2023/08/07 02:21:01;;;;;;;4.13;2.50;;;14.70;99.90;;;;;;5028296;28;20228;-28
2023/08/07 02:23:29;;;;;;;6.33;1.90;;;14.70;99.90;;;;;;5028069;28;20196;-28
2023/08/07 02:25:56;;;;;;;7.37;2.20;;;14.60;99.90;;;;;;5028032;28;20212;-28
2023/08/07 02:28:27;;;;;;;5.57;2.03;;;14.60;99.90;;;;;;5028107;28;20267;-28
2023/08/07 02:30:57;;;;;;;6.80;2.33;;;14.60;99.90;;;;;;5028429;28;20259;-28
2023/08/07 02:33:24;;;;;;;5.77;2.20;;;14.60;99.90;;;;;;5028534;28;20463;-29
2023/08/07 02:35:51;;;;;;;4.93;2.17;;;14.60;99.90;;;;;;5010200;28;20247;-29
2023/08/07 02:38:22;;;;;;;4.20;1.97;;;14.60;99.90;;;;;;5026280;28;20766;-28
2023/08/07 02:40:49;;;;;;;7.63;2.57;;;14.60;99.90;;;;;;5028032;28;20232;-28
2023/08/07 02:43:17;;;;;;;3.93;2.10;;;14.60;99.90;;;;;;5026259;28;20296;-28
2023/08/07 02:45:44;;;;;;;3.50;1.73;;;14.50;99.90;;;;;;5026431;28;20223;-28
2023/08/07 02:48:14;;;;;;;4.53;1.77;;;14.50;99.90;;;;;;5026500;28;20193;-28
2023/08/07 02:50:43;;;;;;;6.23;2.07;;;14.50;99.90;;;;;;5026448;28;20248;-28
2023/08/07 02:53:11;;;;;;;5.43;2.37;;;14.50;99.90;;;;;;5028022;28;20260;-28
2023/08/07 02:55:38;;;;;;;4.40;1.80;;;14.50;99.90;;;;;;5026351;28;20213;-29
2023/08/07 02:58:05;;;;;;;4.67;2.07;;;14.50;99.90;;;;;;5026002;28;20197;-28
2023/08/07 03:00:34;;;;;;;5.97;2.53;;;14.50;99.90;;;;;;5027310;28;20746;-28
2023/08/07 03:03:03;;;;;;;5.83;2.10;;;14.50;99.90;;;;;;5027507;28;20316;-28
2023/08/07 03:05:30;;;;;;;5.07;2.27;;;14.50;99.90;;;;;;5025982;28;20259;-29
2023/08/07 03:07:57;;;;;;;3.67;1.60;;;14.40;99.90;;;;;;5026017;28;20205;-28
2023/08/07 03:10:25;;;;;;;4.40;1.80;;;14.40;99.90;;;;;;5025492;28;20197;-28
2023/08/07 03:12:53;;;;;;;7.53;2.27;;;14.50;99.90;;;;;;5027028;28;20201;-28
2023/08/07 03:15:20;;;;;;;4.93;2.30;;;14.40;99.90;;;;;;5026930;28;20205;-28
2023/08/07 03:17:47;;;;;;;6.53;2.10;;;14.40;99.90;;;;;;5025468;28;20217;-28
2023/08/07 03:20:16;;;;;;;4.23;1.90;;;14.40;99.90;;;;;;5025586;28;20234;-28
2023/08/07 03:22:46;;;;;;;3.17;1.83;;;14.40;99.90;;;;;;5025496;28;20229;-28
2023/08/07 03:25:13;;;;;;;4.53;1.83;;;14.40;99.90;;;;;;5025399;28;20671;-28
2023/08/07 03:27:40;;;;;;;5.23;2.10;;;14.40;99.90;;;;;;5027093;28;20201;-28
2023/08/07 03:30:11;;;;;;;4.80;2.13;;;14.40;99.90;;;;;;5010361;28;20208;-29
2023/08/07 03:32:41;;;;;;;5.80;1.80;;;14.40;99.90;;;;;;5027158;28;20208;-22
2023/08/07 03:35:09;;;;;;;6.33;2.17;;;14.40;99.90;;;;;;5026964;28;20205;-22
2023/08/07 03:37:39;;;;;;;5.90;2.47;;;14.40;99.90;;;;;;5026428;28;20220;-22
2023/08/07 03:40:12;;;;;;;3.97;2.00;;;14.40;99.90;;;;;;5027043;28;20723;-22
2023/08/07 03:42:39;;;;;;;4.63;2.17;;;14.40;99.90;;;;;;5027106;28;20656;-22
2023/08/07 03:45:09;;;;;;;4.33;2.03;;;14.40;99.90;;;;;;5025336;28;20199;-22
2023/08/07 03:47:37;;;;;;;6.40;1.93;;;14.40;99.90;;;;;;5026697;28;20209;-22
2023/08/07 03:50:07;;;;;;;4.87;1.70;;;14.40;99.90;;;;;;5026463;28;20197;-22
2023/08/07 03:52:37;;;;;;;4.37;1.87;;;14.40;99.90;;;;;;5026544;28;20216;-22
2023/08/07 03:55:07;;;;;;;4.90;1.93;;;14.40;99.90;;;;;;5025005;28;20224;-22
2023/08/07 03:57:34;;;;;;;5.17;2.10;;;14.40;99.90;;;;;;5026716;28;20347;-22
2023/08/07 04:00:02;;;;;;;4.00;2.00;;;14.40;99.90;;;;;;5009099;28;20752;-22
2023/08/07 04:02:30;;;;;;;4.40;1.80;;;14.50;99.90;;;;;;5026154;28;20227;-22
2023/08/07 04:04:57;;;;;;;6.13;2.00;;;14.50;99.90;;;;;;5024927;28;20301;-22
2023/08/07 04:07:24;;;;;;;4.60;1.80;;;14.50;99.90;;;;;;5009235;28;20607;-22
2023/08/07 04:09:51;;;;;;;7.67;2.30;;;14.60;99.90;;;;;;5026329;28;20691;-22
2023/08/07 04:12:18;;;;;;;6.17;2.43;;;14.50;99.90;;;;;;5026066;28;20255;-22
2023/08/07 04:14:46;;;;;;;3.83;1.90;;;14.50;99.90;;;;;;5024536;28;20240;-22
2023/08/07 04:17:13;;;;;;;4.53;2.40;;;14.60;99.90;;;;;;5023888;28;20212;-22
2023/08/07 04:19:40;;;;;;;5.10;2.13;;;14.60;99.90;;;;;;5024630;28;20212;-22
2023/08/07 04:22:07;;;;;;;4.10;1.80;;;14.60;99.90;;;;;;5026066;28;20264;-22
2023/08/07 04:24:35;;;;;;;6.87;2.30;;;14.60;99.90;;;;;;5024518;28;20201;-22
2023/08/07 04:27:02;;;;;;;6.03;2.30;;;14.60;99.90;;;;;;5024408;28;20209;-22
2023/08/07 04:29:29;;;;;;;6.80;2.43;;;14.60;99.90;;;;;;5025904;28;20774;-22
2023/08/07 04:31:57;;;;;;;4.87;2.03;;;14.60;99.90;;;;;;5024329;28;20213;-22
2023/08/07 04:34:31;;;;;;;7.60;2.30;;;14.60;99.90;;;;;;5025924;28;20228;-22
2023/08/07 04:36:59;;;;;;;4.60;1.80;;;14.60;99.90;;;;;;5027887;28;20227;-22
2023/08/07 04:39:30;;;;;;;6.90;2.60;;;14.60;99.90;;;;;;5027109;28;20239;-22
2023/08/07 04:41:57;;;;;;;5.37;2.37;;;14.60;99.90;;;;;;5044271;28;20266;-22
2023/08/07 04:44:27;;;;;;;5.30;2.40;;;14.70;99.90;;;;;;5044785;28;20204;-22
2023/08/07 04:46:56;;;;;;;6.00;2.50;;;14.70;99.90;;;;;;5044375;28;20666;-22
2023/08/07 04:49:34;;;;;;;4.20;2.20;;;14.70;99.90;;;;;;5043918;28;20493;-22
2023/08/07 04:52:01;;;;;;;4.10;1.87;;;14.70;99.90;;;;;;5045642;28;20208;-22
2023/08/07 04:54:51;;;;;;;3.60;2.10;;;14.70;99.90;;;;;;5044232;28;20686;-22
2023/08/07 04:57:18;;;;;;;5.87;2.07;;;14.70;99.90;;;;;;5044234;28;20237;-22
2023/08/07 04:59:47;;;;;;;6.83;2.03;;;14.70;99.90;;;;;;5045614;28;20738;-22
2023/08/07 05:02:15;;;;;;;4.77;2.10;;;14.70;99.90;;;;;;5045262;28;20235;-22
2023/08/07 05:04:42;;;;;;;4.70;2.00;;;14.70;99.90;;;;;;5045335;28;20682;-22
2023/08/07 05:07:09;;;;;;;6.77;3.03;;;14.70;99.90;;;;;;5045273;28;20232;-22
2023/08/07 05:09:36;;;;;;;7.17;2.50;;;14.70;99.90;;;;;;5045175;28;20289;-22
2023/08/07 05:12:06;;;;;;;5.40;2.23;;;14.80;99.90;;;;;;5044063;28;20204;-22
2023/08/07 05:14:33;;;;;;;5.47;2.30;;;14.80;99.90;;;;;;5027599;28;20265;-22
2023/08/07 05:17:00;;;;;;;4.40;2.40;;;14.80;99.90;;;;;;5045634;28;20255;-22
2023/08/07 05:19:27;;;;;;;7.10;2.53;;;14.80;99.90;;;;;;5027799;28;20215;-22
2023/08/07 05:21:55;;;;;;;5.77;2.33;;;14.80;99.90;;;;;;5027885;28;20224;-22
2023/08/07 05:24:25;;;;;;;6.17;2.07;;;14.80;99.90;;;;;;5045573;28;20697;-22
2023/08/07 05:26:54;;;;;;;6.37;2.57;;;14.80;99.90;;;;;;5044008;28;20197;-22
2023/08/07 05:29:21;;;;;;;4.50;1.83;;;14.80;99.90;;;;;;5046562;28;20212;-22
2023/08/07 05:31:53;;;;;;;6.80;2.50;;;14.80;99.90;;;;;;5049523;28;20697;-22
2023/08/07 05:34:28;;;;;;;4.43;2.13;;;14.80;99.90;;;;;;5048947;28;20304;-22
2023/08/07 05:36:55;;;;;;;5.43;2.53;;;14.80;99.90;;;;;;5031017;28;20624;-22
2023/08/07 05:39:25;;;;;;;5.97;1.90;;;14.80;99.90;;;;;;5047142;28;20313;-22
2023/08/07 05:41:57;;;;;;;5.47;2.30;;;14.80;99.90;;;;;;5047281;28;20765;-22
2023/08/07 05:44:26;;;;;;;5.67;2.20;;;14.90;99.90;;;;;;5048533;28;20543;-22
2023/08/07 05:46:54;;;;;;;6.40;2.40;;;14.90;99.90;;;;;;5047273;28;20223;-22
2023/08/07 05:49:21;;;;;;;6.30;2.60;;;14.90;99.90;;;;;;5048950;28;20641;-28
2023/08/07 05:51:54;;;;;;;3.60;2.20;;;14.90;99.90;;;;;;5047406;28;20201;-28
2023/08/07 05:54:22;;;;;;;5.17;2.53;;;14.90;99.90;;;;;;5048639;28;20200;-28
2023/08/07 05:56:49;;;;;;;5.53;2.37;;;14.90;99.90;;;;;;5047646;28;20216;-29
2023/08/07 05:59:16;;;;;;;4.37;2.13;;;14.90;99.90;;;;;;5030803;28;20215;-29
2023/08/07 06:01:43;;;;;;;5.90;2.47;;;14.90;99.90;;;;;;5046799;28;20243;-28
2023/08/07 06:04:13;;;;;;;4.17;2.30;;;14.90;99.90;;;;;;5048286;28;20203;-28
2023/08/07 06:06:43;;;;;;;4.40;1.87;;;14.90;99.90;;;;;;5046855;28;20235;-28
2023/08/07 06:09:10;;;;;;;6.37;2.13;;;15.00;99.90;;;;;;5030394;28;20200;-28
2023/08/07 06:11:37;;;;;;;6.73;2.37;;;15.00;99.90;;;;;;5046510;28;20266;-28
2023/08/07 06:14:04;;;;;;;4.50;2.13;;;15.00;99.90;;;;;;5046604;28;20274;-28
2023/08/07 06:16:34;;;;;;;6.33;2.33;;;15.00;99.90;;;;;;5030435;28;20215;-28
2023/08/07 06:19:01;;;;;;;5.27;2.33;;;15.10;99.90;;;;;;5046781;28;20236;-28
2023/08/07 06:21:31;;;;;;;6.80;2.20;;;15.10;99.90;;;;;;5046370;28;20319;-29
2023/08/07 06:23:59;;;;;;;5.27;2.23;;;15.10;99.90;;;;;;5046611;28;20205;-28
2023/08/07 06:26:28;;;;;;;5.93;2.43;;;15.20;99.90;;;;;;5047998;28;20204;-28
2023/08/07 06:28:55;;;;;;;6.30;2.43;;;15.20;99.90;;;;;;5046613;28;20674;-28
2023/08/07 06:31:25;;;;;;;5.87;2.23;;;15.20;99.90;;;;;;5046487;28;20321;-28
2023/08/07 06:33:52;;;;;;;7.07;2.50;;;15.20;99.90;;;;;;5047175;28;20638;-28
2023/08/07 06:36:27;;;;;;;7.23;2.80;;;15.30;99.90;;;;;;5046301;28;20201;-28
2023/08/07 06:38:57;;;;;;;6.27;2.23;;;15.30;99.90;;;;;;5045416;28;20232;-28
2023/08/07 06:41:25;;;;;;;7.77;2.67;;;15.40;99.90;;;;;;5047537;28;20224;-28
2023/08/07 06:43:52;;;;;;;6.37;2.70;;;15.40;99.90;;;;;;5030091;28;20690;-28
2023/08/07 06:46:24;;;;;;;7.80;2.67;;;15.40;99.90;;;;;;5047589;28;20214;-28
2023/08/07 06:48:51;;;;;;;4.80;2.40;;;15.50;99.90;;;;;;5046150;28;20255;-29
2023/08/07 06:51:23;;;;;;;5.23;2.30;;;15.50;99.90;;;;;;5047252;28;20204;-28
2023/08/07 06:53:50;;;;;;;5.50;2.43;;;15.60;99.90;;;;;;5046346;28;20592;-29
2023/08/07 06:56:18;;;;;;;5.43;2.40;;;15.60;99.90;;;;;;5045670;28;20294;-28
2023/08/07 06:58:45;;;;;;;9.73;2.67;;;15.60;99.90;;;;;;5047402;28;20211;-28
2023/08/07 07:01:12;;;;;;;4.67;2.30;;;15.70;99.90;;;;;;5047394;28;20658;-29
2023/08/07 07:03:42;;;;;;;5.67;2.23;;;15.70;99.90;;;;;;5045583;28;20216;-28
2023/08/07 07:06:09;;;;;;;6.60;2.40;;;15.70;99.90;;;;;;5045785;28;20209;-29
2023/08/07 07:08:37;;;;;;;7.63;2.50;;;15.70;99.90;;;;;;5045839;28;20204;-28
2023/08/07 07:11:04;;;;;;;6.40;2.13;;;15.80;99.90;;;;;;5047865;28;20747;-28
2023/08/07 07:13:31;;;;;;;5.47;2.47;;;15.80;99.90;;;;;;5047033;28;20235;-28
2023/08/07 07:16:01;;;;;;;5.10;2.40;;;15.70;99.90;;;;;;5045766;28;20200;-28
2023/08/07 07:18:31;;;;;;;5.20;2.50;;;15.70;99.90;;;;;;5045615;28;20228;-28
2023/08/07 07:21:00;;;;;;;4.17;2.30;;;15.80;99.90;;;;;;5047194;28;20192;-28
2023/08/07 07:23:28;;;;;;;5.03;2.57;;;15.80;99.90;;;;;;5046533;28;20327;-29
2023/08/07 07:25:56;;;;;;;4.40;2.20;;;15.90;99.90;;;;;;5046685;28;20342;-28
2023/08/07 07:28:24;;;;;;;6.17;2.60;;;15.90;99.90;;;;;;5046671;28;20209;-28
2023/08/07 07:31:03;;;;;;;5.30;2.30;;;15.90;99.90;;;;;;5044987;28;20196;-28
2023/08/07 07:33:31;;;;;;;4.93;2.43;;;16.00;99.90;;;;;;5046485;28;20243;-28
2023/08/07 07:36:01;;;;;;;5.60;1.90;;;16.00;99.90;;;;;;5045075;28;20227;-28
2023/08/07 07:38:31;;;;;;;7.03;2.33;;;16.00;99.90;;;;;;5046518;28;20931;-28
2023/08/07 07:40:58;;;;;;;6.80;2.40;;;16.00;99.90;;;;;;5046445;28;20208;-28
2023/08/07 07:43:25;;;;;;;4.53;2.10;;;16.00;99.90;;;;;;5044652;28;20577;-28
2023/08/07 07:45:52;;;;;;;8.13;2.40;;;16.10;99.90;;;;;;5044873;28;20192;-28
2023/08/07 07:48:20;;;;;;;3.17;2.20;;;16.10;99.90;;;;;;5046890;28;20204;-28
2023/08/07 07:51:02;;;;;;;5.97;2.20;;;16.10;99.90;;;;;;5045838;28;20217;-28
2023/08/07 07:53:29;;;;;;;4.37;2.50;;;16.20;99.90;;;;;;5044652;28;20211;-28
2023/08/07 07:55:57;;;;;;;6.27;2.37;;;16.20;99.90;;;;;;5044575;28;20201;-28
2023/08/07 07:58:27;;;;;;;3.87;2.50;;;16.20;99.90;;;;;;5028395;28;20755;-29
2023/08/07 08:00:54;;;;;;;3.87;2.03;;;16.30;99.90;;;;;;5028711;28;20648;-28
2023/08/07 08:03:23;;;;;;;7.00;2.80;;;16.30;99.90;;;;;;5045965;28;20230;-28
2023/08/07 08:05:52;;;;;;;5.07;2.13;;;16.30;99.90;;;;;;5046287;28;20196;-29
2023/08/07 08:08:21;;;;;;;6.03;2.57;;;16.30;99.90;;;;;;5046178;28;20286;-28
2023/08/07 08:10:50;;;;;;;5.20;2.50;;;16.40;99.90;;;;;;5028114;28;20758;-28
2023/08/07 08:13:18;;;;;;;4.70;2.40;;;16.40;99.90;;;;;;5045708;28;20212;-28
2023/08/07 08:15:48;;;;;;;4.40;2.23;;;16.40;99.90;;;;;;5046082;28;20246;-28
2023/08/07 08:18:17;;;;;;;9.20;2.50;;;16.40;99.90;;;;;;5044298;28;20200;-28
2023/08/07 08:20:44;;;;;;;5.43;2.33;;;16.40;99.90;;;;;;5044293;28;20704;-28
2023/08/07 08:23:14;;;;;;;4.67;2.40;;;16.40;99.90;;;;;;5045552;28;20211;-28
2023/08/07 08:25:43;;;;;;;5.13;2.23;;;16.50;99.90;;;;;;5046039;28;20215;-29
2023/08/07 08:28:11;;;;;;;4.83;2.27;;;16.50;99.90;;;;;;5046292;28;20275;-28
2023/08/07 08:30:38;;;;;;;4.00;2.20;;;16.60;99.90;;;;;;5045825;28;20701;-28
2023/08/07 08:33:05;;;;;;;4.53;2.83;;;16.60;99.90;;;;;;5044250;28;21062;-29
2023/08/07 08:35:35;;;;;;;4.03;2.40;;;16.60;99.90;;;;;;5045651;28;20261;-29
2023/08/07 08:38:03;;;;;;;8.17;3.10;;;16.70;99.90;;;;;;5043743;28;20668;-28
2023/08/07 08:40:31;;;;;;;6.23;2.77;;;16.80;99.90;;;;;;5043916;28;20211;-28
2023/08/07 08:43:00;;;;;;;6.80;2.50;;;16.80;99.90;;;;;;5044184;28;20311;-28
2023/08/07 08:45:32;;;;;;;4.73;2.40;;;16.80;99.90;;;;;;5045146;28;20212;-28
2023/08/07 08:48:03;;;;;;;4.50;2.50;;;16.90;99.90;;;;;;5045218;28;20733;-28
2023/08/07 08:50:33;;;;;;;6.07;2.60;;;16.90;99.90;;;;;;5045831;28;20571;-28
2023/08/07 08:53:02;;;;;;;5.50;2.47;;;16.90;99.90;;;;;;5046059;28;20216;-29
2023/08/07 08:55:33;;;;;;;3.43;2.40;;;16.90;99.90;;;;;;5045447;28;20201;-29
2023/08/07 08:58:01;;;;;;;6.38;3.10;;;17.00;99.90;;;;;;5045348;28;20250;-29
2023/08/07 09:00:30;;;;;;;3.57;2.20;;;17.00;99.90;;;;;;5045334;28;20278;-29
2023/08/07 09:03:01;;;;;;;5.30;2.50;;;17.10;99.90;;;;;;5047678;28;20223;-28
2023/08/07 09:05:33;;;;;;;8.37;2.80;;;17.10;99.90;;;;;;5050193;28;20467;-28
2023/08/07 09:08:01;;;;;;;5.00;2.67;;;17.20;99.90;;;;;;5049752;28;20295;-28
2023/08/07 09:10:29;;;;;;;4.93;2.30;;;17.20;99.90;;;;;;5049383;28;20246;-28
2023/08/07 09:12:59;;;;;;;5.33;2.37;;;17.20;99.90;;;;;;5047778;28;20200;-28
2023/08/07 09:15:31;;;;;;;4.90;2.77;;;17.20;99.90;;;;;;5047653;28;20590;-28
2023/08/07 09:18:00;;;;;;;5.13;2.60;;;17.30;99.90;;;;;;5049368;28;20211;-28
2023/08/07 09:20:28;;;;;;;6.27;2.57;;;17.20;99.90;;;;;;5048873;28;20208;-28
2023/08/07 09:22:58;;;;;;;6.43;2.67;;;17.20;99.90;;;;;;5047270;28;20968;-29
2023/08/07 09:25:33;;;;;;;7.47;2.80;;;17.30;99.90;;;;;;5048651;28;20307;-29
2023/08/07 09:28:07;;;;;;;3.35;2.17;;;17.30;99.90;;;;;;5047378;28;20196;-28
2023/08/07 09:30:36;;;;;;;4.00;2.40;;;17.40;99.90;;;;;;5047773;28;20204;-28
2023/08/07 09:33:10;;;;;;;5.23;2.30;;;17.40;99.90;;;;;;5031435;28;20203;-28
2023/08/07 09:35:42;;;;;;;7.13;2.45;;;17.50;99.90;;;;;;5048945;28;20200;-28
2023/08/07 09:38:09;;;;;;;4.32;2.22;;;17.50;99.90;;;;;;5046951;28;20878;-29
2023/08/07 09:40:38;;;;;;;3.53;2.00;;;17.60;99.90;;;;;;5049128;28;20480;-29
2023/08/07 09:43:10;;;;;;;4.43;2.10;;;17.70;99.90;;;;;;5047709;28;20605;-28
2023/08/07 09:45:40;;;;;;;2.87;1.77;;;17.70;99.90;;;;;;5048773;28;20212;-29
2023/08/07 09:48:07;;;;;;;2.75;1.88;;;17.70;99.90;;;;;;5048845;28;20262;-29
2023/08/07 09:50:35;;;;;;;3.65;1.80;;;17.70;99.90;;;;;;5048519;28;20206;-29
2023/08/07 09:53:05;;;;;;;3.47;2.20;;;17.80;99.90;;;;;;5047075;28;20208;-29
2023/08/07 09:55:36;;;;;;;3.47;1.60;;;17.80;99.90;;;;;;5048990;28;20707;-29
2023/08/07 09:58:07;;;;;;;7.05;2.42;;;17.80;99.90;;;;;;5046899;28;20232;-29
2023/08/07 10:00:35;;;;;;;3.17;1.90;;;17.80;99.90;;;;;;5046715;28;20216;-29
2023/08/07 10:03:05;;;;;;;3.35;1.73;;;17.80;99.90;;;;;;5048443;28;20216;-29
2023/08/07 10:05:33;;;;;;;2.42;1.90;;;17.80;99.90;;;;;;5046635;28;20216;-29
2023/08/07 10:08:02;;;;;;;2.65;1.95;;;17.80;99.90;;;;;;5048221;28;20205;-28
2023/08/07 10:10:39;;;;;;;5.28;1.83;;;17.90;99.90;;;;;;5046463;28;20192;-29
2023/08/07 10:13:14;;;;;;;2.35;1.65;;;17.90;99.90;;;;;;5029529;28;20212;-29
2023/08/07 10:15:50;;;;;;;3.23;1.87;;;17.90;99.90;;;;;;5046008;28;20276;-29
2023/08/07 10:18:21;;;;;;;3.17;1.88;;;17.90;99.90;;;;;;5048009;28;20212;-29
2023/08/07 10:20:51;;;;;;;5.45;1.92;;;17.90;99.90;;;;;;5048282;28;20200;-29
2023/08/07 10:23:18;;;;;;;3.70;1.90;;;17.90;99.90;;;;;;5046636;28;20227;-29
2023/08/07 10:25:49;;;;;;;2.17;1.73;;;17.90;99.90;;;;;;5046120;28;20720;-29
2023/08/07 10:28:18;;;;;;;3.73;1.93;;;18.00;99.90;;;;;;5046193;28;20266;-29
2023/08/07 10:30:49;;;;;;;3.75;2.17;;;18.00;99.90;;;;;;5047562;28;20222;-29
2023/08/07 10:33:20;;;;;;;3.05;1.85;;;18.00;99.90;;;;;;5047796;28;20227;-28
2023/08/07 10:35:52;;;;;;;2.63;1.80;;;18.00;99.90;;;;;;5045987;28;20212;-28
2023/08/07 10:38:23;;;;;;;2.65;1.58;;;18.00;99.90;;;;;;5047185;28;20240;-30
2023/08/07 10:41:05;;;;;;;2.90;1.50;;;18.10;99.90;;;;;;5046296;28;20652;-29
2023/08/07 10:43:44;;;;;;;3.00;1.80;;;18.10;99.90;;;;;;5047591;28;20212;-29
2023/08/07 10:46:22;;;;;;;2.33;1.80;;;18.10;99.90;;;;;;5047202;28;20574;-29
2023/08/07 10:48:59;;;;;;;3.27;1.60;;;18.00;99.90;;;;;;5045756;28;20587;-29
2023/08/07 10:51:32;;;;;;;4.10;2.07;;;18.00;99.90;;;;;;5047603;28;20211;-29
2023/08/07 10:54:01;;;;;;;2.33;1.97;;;18.10;99.90;;;;;;5047649;28;20582;-29
2023/08/07 10:56:39;;;;;;;2.88;1.98;;;18.10;99.90;;;;;;5030181;28;20214;-29
2023/08/07 10:59:12;;;;;;;2.83;2.08;;;18.10;99.90;;;;;;5045866;28;20693;-29
2023/08/07 11:01:43;;;;;;;2.30;1.73;;;18.20;99.90;;;;;;5047235;28;20208;-29
2023/08/07 11:04:15;;;;;;;2.38;2.00;;;18.20;99.90;;;;;;5047259;28;20248;-28
2023/08/07 11:06:46;;;;;;;2.50;1.70;;;18.30;99.90;;;;;;5045519;28;20563;-29
2023/08/07 11:09:14;;;;;;;2.42;1.90;;;18.30;99.90;;;;;;5045559;28;20269;-29
2023/08/07 11:11:46;;;;;;;1.88;1.48;;;18.30;99.90;;;;;;5045206;28;20234;-29
2023/08/07 11:14:19;;;;;;;2.55;1.90;;;18.30;99.90;;;;;;5046535;28;20211;-29
2023/08/07 11:16:48;;;;;;;2.80;1.80;;;18.30;99.90;;;;;;5045747;28;20193;-29
2023/08/07 11:19:18;;;;;;;4.10;2.03;;;18.40;99.90;;;;;;5047070;28;20376;-29
2023/08/07 11:21:48;;;;;;;1.97;1.30;;;18.40;99.90;;;;;;5046939;28;20239;-29
2023/08/07 11:24:21;;;;;;;1.70;1.55;;;18.40;99.90;;;;;;5046923;28;20886;-23
2023/08/07 11:26:48;;;;;;;2.03;1.80;;;18.40;99.90;;;;;;5046554;28;20208;-22
2023/08/07 11:29:18;;;;;;;3.60;1.70;;;18.50;99.90;;;;;;5046546;28;20212;-23
2023/08/07 11:31:48;;;;;;;2.50;1.45;;;18.50;99.90;;;;;;5045467;28;20304;-23
2023/08/07 11:34:18;;;;;;;2.60;1.63;;;18.50;99.90;;;;;;5044992;28;20696;-22
2023/08/07 11:36:46;;;;;;;2.55;1.85;;;18.60;99.90;;;;;;5046503;28;20663;-23
2023/08/07 11:39:17;;;;;;;2.28;1.63;;;18.60;99.90;;;;;;5045913;28;20636;-22
2023/08/07 11:41:45;;;;;;;2.75;2.22;;;18.60;99.90;;;;;;5046300;28;20219;-22
2023/08/07 11:44:12;;;;;;;2.58;1.85;;;18.60;99.90;;;;;;5046009;28;20713;-22
2023/08/07 11:46:40;;;;;;;3.93;1.97;;;18.60;99.90;;;;;;5044774;28;20207;-23
2023/08/07 11:49:11;;;;;;;4.55;1.80;;;18.70;99.90;;;;;;5044383;28;20236;-22
2023/08/07 11:51:38;;;;;;;2.78;1.85;;;18.70;99.90;;;;;;5046076;28;20688;-22
2023/08/07 11:54:14;;;;;;;3.38;1.55;;;18.70;99.90;;;;;;5046539;28;20239;-22
2023/08/07 11:56:45;;;;;;;1.65;1.40;;;18.70;99.90;;;;;;5044706;28;20204;-22
2023/08/07 11:59:16;;;;;;;1.83;1.58;;;18.80;99.90;;;;;;5046095;28;20236;-23
2023/08/07 12:01:43;;;;;;;2.20;1.65;;;18.90;99.90;;;;;;5045932;28;20696;-22
2023/08/07 12:04:13;;;;;;;1.63;1.40;;;18.90;99.90;;;;;;5044310;28;20220;-22
2023/08/07 12:06:56;;;;;;;2.00;1.60;;;19.00;99.90;;;;;;5044433;28;20220;-23
2023/08/07 12:09:28;;;;;;;4.13;1.73;;;19.10;99.90;;;;;;5045588;28;20192;-22
2023/08/07 12:11:59;;;;;;;3.05;1.80;;;19.10;99.90;;;;;;5044501;28;20680;-22
2023/08/07 12:14:32;;;;;;;3.65;1.90;;;19.10;99.90;;;;;;5044217;28;20574;-22
2023/08/07 12:17:03;;;;;;;3.67;1.90;;;19.20;99.90;;;;;;5044116;28;20245;-22
2023/08/07 12:19:48;;;;;;;1.70;1.40;;;19.20;99.90;;;;;;5027822;28;20291;-23
2023/08/07 12:22:20;;;;;;;2.35;1.42;;;19.20;99.90;;;;;;5044183;28;20201;-22
2023/08/07 12:24:47;;;;;;;4.38;1.73;;;19.20;99.90;;;;;;5044289;28;20287;-23
2023/08/07 12:27:17;;;;;;;3.58;1.67;;;19.20;99.90;;;;;;5044152;28;20994;-22
2023/08/07 12:29:46;;;;;;;2.65;1.60;;;19.30;99.90;;;;;;5045781;28;20258;-22
2023/08/07 12:32:16;;;;;;;2.30;1.70;;;19.30;99.90;;;;;;5045851;28;20674;-22
2023/08/07 12:34:50;;;;;;;4.88;1.42;;;19.40;99.90;;;;;;5045810;28;20192;-22
2023/08/07 12:37:20;;;;;;;2.20;1.60;;;19.40;99.90;;;;;;5027771;28;20220;-28
2023/08/07 12:39:47;;;;;;;3.17;1.75;;;19.40;99.90;;;;;;5043781;28;20584;-29
2023/08/07 12:42:17;;;;;;;2.45;1.52;;;19.50;99.90;;;;;;5045160;28;20549;-29
2023/08/07 12:44:47;;;;;;;1.98;1.50;;;19.50;99.90;;;;;;5044183;28;20223;-28
2023/08/07 12:47:17;;;;;;;2.45;1.80;;;19.50;99.90;;;;;;5028009;28;20211;-28
2023/08/07 12:49:48;;;;;;;1.90;1.70;;;19.60;99.90;;;;;;5045210;28;20574;-29
2023/08/07 12:52:15;;;;;;;2.15;1.52;;;19.60;99.90;;;;;;5044809;28;20238;-29
2023/08/07 12:54:47;;;;;;;2.67;1.90;;;19.70;99.90;;;;;;5045050;28;20269;-28
2023/08/07 12:57:14;;;;;;;3.10;1.67;;;19.80;99.90;;;;;;5045205;28;20212;-29
2023/08/07 12:59:41;;;;;;;1.88;1.40;;;19.80;99.90;;;;;;5043681;28;20208;-29